Time;durP1;ratioP1;P1;durP2;ratioP2;P2;SDS_P1;SDS_P2;PMS_P1;PMS_P2;Temp;Humidity;BMP_temperature;BMP_pressure;BME280_temperature;BME280_humidity;BME280_pressure;Samples;Min_cycle;Max_cycle;Signal;HPM_P1;HPM_P2
2021/09/13 00:02:13;;;;;;;;;;;16.00;73.40;;;;;;5075326;28;20346;-76
2021/09/13 00:04:38;;;;;;;;;;;16.00;73.60;;;;;;5075251;28;19908;-76
2021/09/13 00:07:04;;;;;;;;;;;16.00;74.10;;;;;;5075172;28;19908;-76
2021/09/13 00:09:29;;;;;;;;;;;15.90;74.00;;;;;;5057355;28;19912;-76
2021/09/13 00:11:55;;;;;;;;;;;15.90;73.80;;;;;;5075209;28;19916;-76
2021/09/13 00:14:21;;;;;;;;;;;15.80;73.50;;;;;;5075063;28;19916;-76
2021/09/13 00:16:46;;;;;;;;;;;15.70;72.60;;;;;;5075574;28;19917;-76
2021/09/13 00:19:12;;;;;;;;;;;15.70;73.80;;;;;;5076845;28;19923;-76
2021/09/13 00:21:38;;;;;;;;;;;15.60;73.10;;;;;;5057236;28;19999;-76
2021/09/13 00:24:03;;;;;;;;;;;15.60;73.60;;;;;;5057049;28;19919;-76
2021/09/13 00:26:29;;;;;;;;;;;15.60;74.00;;;;;;5075160;28;20365;-76
2021/09/13 00:28:55;;;;;;;;;;;15.50;74.10;;;;;;5074864;28;19909;-76
2021/09/13 00:31:20;;;;;;;;;;;15.50;75.00;;;;;;5075134;28;20432;-76
2021/09/13 00:33:46;;;;;;;;;;;15.50;75.50;;;;;;5074787;28;19915;-76
2021/09/13 00:36:11;;;;;;;;;;;15.40;76.30;;;;;;5074785;28;19931;-76
2021/09/13 00:38:37;;;;;;;;;;;15.40;76.00;;;;;;5056649;28;20419;-76
2021/09/13 00:41:02;;;;;;;;;;;15.40;75.70;;;;;;5074880;28;20277;-76
2021/09/13 00:43:28;;;;;;;;;;;15.40;76.50;;;;;;5074537;28;19908;-76
2021/09/13 00:45:54;;;;;;;;;;;15.40;75.90;;;;;;5074710;28;20394;-76
2021/09/13 00:48:19;;;;;;;;;;;15.30;76.20;;;;;;5074428;28;19916;-76
2021/09/13 00:50:45;;;;;;;;;;;15.30;76.40;;;;;;5074649;28;19962;-76
2021/09/13 00:53:10;;;;;;;;;;;15.30;76.70;;;;;;5074173;28;19955;-76
2021/09/13 00:55:36;;;;;;;;;;;15.30;77.40;;;;;;5074420;28;20369;-76
2021/09/13 00:58:02;;;;;;;;;;;15.20;76.60;;;;;;5074195;28;20311;-76
2021/09/13 01:00:27;;;;;;;;;;;15.20;77.10;;;;;;5056381;28;19916;-76
2021/09/13 01:02:53;;;;;;;;;;;15.20;74.70;;;;;;5074236;28;19920;-76
2021/09/13 01:05:18;;;;;;;;;;;15.20;78.50;;;;;;5056242;28;20250;-76
2021/09/13 01:07:45;;;;;;;;;;;15.20;78.20;;;;;;5074041;28;19912;-76
2021/09/13 01:10:10;;;;;;;;;;;15.20;77.20;;;;;;5074126;28;19919;-76
2021/09/13 01:12:36;;;;;;;;;;;15.10;74.60;;;;;;5055995;28;19913;-76
2021/09/13 01:15:03;;;;;;;;;;;15.10;77.70;;;;;;5073961;28;19921;-76
2021/09/13 01:17:28;;;;;;;;;;;15.10;77.10;;;;;;5073938;28;19917;-76
2021/09/13 01:19:54;;;;;;;;;;;15.10;77.70;;;;;;5075431;28;20399;-76
2021/09/13 01:22:20;;;;;;;;;;;15.10;78.50;;;;;;5073289;28;19916;-76
2021/09/13 01:24:45;;;;;;;;;;;15.10;78.50;;;;;;5072357;28;20383;-76
2021/09/13 01:27:11;;;;;;;;;;;15.10;79.80;;;;;;5055841;28;19912;-76
2021/09/13 01:29:37;;;;;;;;;;;15.10;78.30;;;;;;5073822;28;20388;-76
2021/09/13 01:32:04;;;;;;;;;;;15.10;79.20;;;;;;5056085;28;19913;-76
2021/09/13 01:34:29;;;;;;;;;;;15.00;78.90;;;;;;5073709;28;19908;-76
2021/09/13 01:36:55;;;;;;;;;;;15.00;78.90;;;;;;5074176;28;19912;-76
2021/09/13 01:39:21;;;;;;;;;;;15.00;79.50;;;;;;5073653;28;19920;-76
2021/09/13 01:41:46;;;;;;;;;;;14.90;80.00;;;;;;5074120;28;20353;-76
2021/09/13 01:44:13;;;;;;;;;;;14.90;79.50;;;;;;5055660;28;19912;-76
2021/09/13 01:46:39;;;;;;;;;;;14.90;79.10;;;;;;5074077;28;20367;-76
2021/09/13 01:49:08;;;;;;;;;;;14.90;79.80;;;;;;5055560;28;19952;-76
2021/09/13 01:51:33;;;;;;;;;;;14.90;80.50;;;;;;5073852;28;19919;-76
2021/09/13 01:53:59;;;;;;;;;;;14.80;80.80;;;;;;5073577;28;19917;-76
2021/09/13 01:56:25;;;;;;;;;;;14.70;80.70;;;;;;5073849;28;19920;-76
2021/09/13 01:58:50;;;;;;;;;;;14.80;80.70;;;;;;5073670;28;19913;-76
2021/09/13 02:01:18;;;;;;;;;;;14.70;80.80;;;;;;5073967;28;19913;-76
2021/09/13 02:03:44;;;;;;;;;;;14.70;80.00;;;;;;5073464;28;19944;-76
2021/09/13 02:06:09;;;;;;;;;;;14.70;80.80;;;;;;5073732;28;19959;-76
2021/09/13 02:08:35;;;;;;;;;;;14.60;81.40;;;;;;5073473;28;19920;-76
2021/09/13 02:11:00;;;;;;;;;;;14.60;81.70;;;;;;5073650;28;20385;-76
2021/09/13 02:13:26;;;;;;;;;;;14.50;81.30;;;;;;5073410;28;20335;-76
2021/09/13 02:15:51;;;;;;;;;;;14.50;82.00;;;;;;5073442;28;19928;-76
2021/09/13 02:18:17;;;;;;;;;;;14.50;80.80;;;;;;5073198;28;19923;-76
2021/09/13 02:20:42;;;;;;;;;;;14.40;81.10;;;;;;5075011;28;20268;-76
2021/09/13 02:23:08;;;;;;;;;;;14.40;81.20;;;;;;5055249;28;19916;-76
2021/09/13 02:25:34;;;;;;;;;;;14.40;82.00;;;;;;5055392;28;19924;-76
2021/09/13 02:27:59;;;;;;;;;;;14.40;82.20;;;;;;5073237;28;19932;-76
2021/09/13 02:30:25;;;;;;;;;;;14.30;80.50;;;;;;5055301;28;19916;-76
2021/09/13 02:32:50;;;;;;;;;;;14.30;81.00;;;;;;5073079;28;20376;-76
2021/09/13 02:35:16;;;;;;;;;;;14.30;81.70;;;;;;5075736;28;19955;-76
2021/09/13 02:37:41;;;;;;;;;;;14.30;81.40;;;;;;5076953;28;19908;-76
2021/09/13 02:40:07;;;;;;;;;;;14.30;82.10;;;;;;5058934;28;19923;-76
2021/09/13 02:42:33;;;;;;;;;;;14.30;82.10;;;;;;5076806;28;19962;-76
2021/09/13 02:44:58;;;;;;;;;;;14.30;82.40;;;;;;5058884;28;19920;-76
2021/09/13 02:47:24;;;;;;;;;;;14.30;82.80;;;;;;5058744;28;19931;-76
2021/09/13 02:49:49;;;;;;;;;;;14.30;83.60;;;;;;5058796;28;20411;-76
2021/09/13 02:52:15;;;;;;;;;;;14.20;83.70;;;;;;5076587;28;19962;-76
2021/09/13 02:54:40;;;;;;;;;;;14.20;83.40;;;;;;5076547;28;19916;-76
2021/09/13 02:57:06;;;;;;;;;;;14.20;84.10;;;;;;5076544;28;19909;-76
2021/09/13 02:59:31;;;;;;;;;;;14.20;83.50;;;;;;5076606;28;20007;-76
2021/09/13 03:01:57;;;;;;;;;;;14.20;83.70;;;;;;5058662;28;20011;-76
2021/09/13 03:04:22;;;;;;;;;;;14.20;83.50;;;;;;5076445;28;19966;-76
2021/09/13 03:06:51;;;;;;;;;;;14.20;83.80;;;;;;5058700;28;19951;-76
2021/09/13 03:09:16;;;;;;;;;;;14.20;82.60;;;;;;5076320;28;19991;-76
2021/09/13 03:11:42;;;;;;;;;;;14.20;83.00;;;;;;5076820;28;19974;-76
2021/09/13 03:14:07;;;;;;;;;;;14.20;82.50;;;;;;5076230;28;20391;-76
2021/09/13 03:16:33;;;;;;;;;;;14.20;81.80;;;;;;5076649;28;19924;-76
2021/09/13 03:18:59;;;;;;;;;;;14.20;84.80;;;;;;5077480;28;19923;-76
2021/09/13 03:21:24;;;;;;;;;;;14.20;85.60;;;;;;5076469;28;20003;-76
2021/09/13 03:23:50;;;;;;;;;;;14.20;85.40;;;;;;5076215;28;20422;-76
2021/09/13 03:26:15;;;;;;;;;;;14.20;85.30;;;;;;5076388;28;19920;-76
2021/09/13 03:28:41;;;;;;;;;;;14.20;85.40;;;;;;5076070;28;19909;-76
2021/09/13 03:31:06;;;;;;;;;;;14.20;85.90;;;;;;5075916;28;19917;-76
2021/09/13 03:33:33;;;;;;;;;;;14.20;85.10;;;;;;5058305;28;19908;-76
2021/09/13 03:35:58;;;;;;;;;;;14.20;85.90;;;;;;5076342;28;19925;-77
2021/09/13 03:38:24;;;;;;;;;;;14.20;85.90;;;;;;5075930;28;19915;-76
2021/09/13 03:40:49;;;;;;;;;;;14.30;85.60;;;;;;5076165;28;20362;-76
2021/09/13 03:43:15;;;;;;;;;;;14.30;85.80;;;;;;5075805;28;19908;-76
2021/09/13 03:45:41;;;;;;;;;;;14.30;85.70;;;;;;5057041;28;20027;-76
2021/09/13 03:48:07;;;;;;;;;;;14.30;85.50;;;;;;5075561;28;19909;-76
2021/09/13 03:50:32;;;;;;;;;;;14.30;85.60;;;;;;5075716;28;19920;-76
2021/09/13 03:52:58;;;;;;;;;;;14.40;86.40;;;;;;5075478;28;19908;-76
2021/09/13 03:55:23;;;;;;;;;;;14.40;86.70;;;;;;5072983;28;19925;-76
2021/09/13 03:57:49;;;;;;;;;;;14.40;85.50;;;;;;5072985;28;19909;-76
2021/09/13 04:00:15;;;;;;;;;;;14.50;86.30;;;;;;5056897;28;19923;-76
2021/09/13 04:02:44;;;;;;;;;;;14.60;85.70;;;;;;5075325;28;19923;-76
2021/09/13 04:05:13;;;;;;;;;;;14.60;85.70;;;;;;5075190;28;19916;-76
2021/09/13 04:08:03;;;;;;;;;;;14.70;85.60;;;;;;5074388;28;19917;-76
2021/09/13 04:10:41;;;;;;;;;;;14.80;84.60;;;;;;5072893;28;19919;-76
2021/09/13 04:13:06;;;;;;;;;;;14.90;84.90;;;;;;5072877;28;20293;-76
2021/09/13 04:15:32;;;;;;;;;;;15.00;84.40;;;;;;5072970;28;19920;-76
2021/09/13 04:17:58;;;;;;;;;;;15.10;84.20;;;;;;5072923;28;19923;-76
2021/09/13 04:20:23;;;;;;;;;;;15.20;83.60;;;;;;5074376;28;19963;-76
2021/09/13 04:22:49;;;;;;;;;;;15.40;83.30;;;;;;5073481;28;19953;-76
2021/09/13 04:25:15;;;;;;;;;;;15.50;82.40;;;;;;5075088;28;19946;-76
2021/09/13 04:27:40;;;;;;;;;;;15.70;81.90;;;;;;5074078;28;20388;-76
2021/09/13 04:30:06;;;;;;;;;;;15.80;81.30;;;;;;5074869;28;19913;-76
2021/09/13 04:32:32;;;;;;;;;;;16.00;81.30;;;;;;5073036;28;19964;-76
2021/09/13 04:34:57;;;;;;;;;;;16.10;80.50;;;;;;5074518;28;20027;-76
2021/09/13 04:37:23;;;;;;;;;;;16.40;80.20;;;;;;5074522;28;19997;-76
2021/09/13 04:39:48;;;;;;;;;;;16.60;80.20;;;;;;5074542;28;19908;-76
2021/09/13 04:42:14;;;;;;;;;;;16.90;79.70;;;;;;5056687;28;19966;-76
2021/09/13 04:44:39;;;;;;;;;;;17.20;80.00;;;;;;5056494;28;19919;-76
2021/09/13 04:47:05;;;;;;;;;;;17.50;78.70;;;;;;5074153;28;20026;-76
2021/09/13 04:49:30;;;;;;;;;;;17.70;78.50;;;;;;5073955;28;19915;-76
2021/09/13 04:51:56;;;;;;;;;;;18.20;78.50;;;;;;5071303;28;19934;-77
2021/09/13 04:54:21;;;;;;;;;;;18.70;77.10;;;;;;5071263;28;19958;-76
2021/09/13 04:56:47;;;;;;;;;;;19.00;75.70;;;;;;5071760;28;20344;-76
2021/09/13 04:59:13;;;;;;;;;;;19.40;75.70;;;;;;5072186;28;19920;-77
2021/09/13 05:01:38;;;;;;;;;;;19.80;74.80;;;;;;5072033;28;20350;-77
2021/09/13 05:04:06;;;;;;;;;;;20.30;73.90;;;;;;5053490;28;19938;-76
2021/09/13 05:06:32;;;;;;;;;;;20.50;72.60;;;;;;5053444;28;20342;-76
2021/09/13 05:08:57;;;;;;;;;;;20.70;71.70;;;;;;5071144;28;20011;-77
2021/09/13 05:11:23;;;;;;;;;;;20.90;71.40;;;;;;5071128;28;20062;-77
2021/09/13 05:13:51;;;;;;;;;;;21.30;70.40;;;;;;5053658;28;19912;-77
2021/09/13 05:16:17;;;;;;;;;;;21.60;70.10;;;;;;5070128;28;19951;-77
2021/09/13 05:18:43;;;;;;;;;;;21.70;68.90;;;;;;5069512;28;19920;-77
2021/09/13 05:21:08;;;;;;;;;;;21.80;68.20;;;;;;5069708;28;19970;-76
2021/09/13 05:23:34;;;;;;;;;;;22.10;67.60;;;;;;5068583;28;19912;-75
2021/09/13 05:25:59;;;;;;;;;;;22.60;67.30;;;;;;5051865;28;19990;-76
2021/09/13 05:28:28;;;;;;;;;;;23.20;67.10;;;;;;5068587;28;21360;-76
2021/09/13 05:30:53;;;;;;;;;;;23.70;64.90;;;;;;5048749;28;20027;-76
2021/09/13 05:33:19;;;;;;;;;;;24.00;64.20;;;;;;5069000;28;19957;-77
2021/09/13 05:35:45;;;;;;;;;;;24.00;63.30;;;;;;5070067;28;19988;-77
2021/09/13 05:38:10;;;;;;;;;;;24.10;63.70;;;;;;5068796;28;19924;-75
2021/09/13 05:40:38;;;;;;;;;;;24.00;63.30;;;;;;5064465;28;19913;-76
2021/09/13 05:43:05;;;;;;;;;;;23.80;62.90;;;;;;5066593;28;19948;-80
2021/09/13 05:45:31;;;;;;;;;;;24.10;61.90;;;;;;5073836;28;20006;-79
2021/09/13 05:47:57;;;;;;;;;;;24.50;64.00;;;;;;5068363;28;19919;-78
2021/09/13 05:50:22;;;;;;;;;;;24.70;64.00;;;;;;5047819;28;19913;-75
2021/09/13 05:52:48;;;;;;;;;;;25.10;61.70;;;;;;5062879;28;19912;-76
2021/09/13 05:55:13;;;;;;;;;;;25.50;60.80;;;;;;5065337;28;19936;-78
2021/09/13 05:57:39;;;;;;;;;;;25.80;60.70;;;;;;5064341;28;19912;-75
2021/09/13 06:00:06;;;;;;;;;;;25.80;61.20;;;;;;5065570;28;20368;-76
2021/09/13 06:02:32;;;;;;;;;;;25.70;60.00;;;;;;5045372;28;19912;-75
2021/09/13 06:04:57;;;;;;;;;;;25.70;59.60;;;;;;5063371;28;20515;-75
2021/09/13 06:07:23;;;;;;;;;;;25.60;58.30;;;;;;5064813;28;19928;-77
2021/09/13 06:09:49;;;;;;;;;;;25.80;58.90;;;;;;5066854;28;19919;-77
2021/09/13 06:12:16;;;;;;;;;;;26.10;59.60;;;;;;5070538;28;19916;-79
2021/09/13 06:14:45;;;;;;;;;;;26.60;59.40;;;;;;5071264;28;20323;-78
2021/09/13 06:17:11;;;;;;;;;;;27.10;58.30;;;;;;5054145;28;19935;-76
2021/09/13 06:19:37;;;;;;;;;;;27.60;58.70;;;;;;5086400;22;19897;-81
2021/09/13 06:22:04;;;;;;;;;;;27.90;56.10;;;;;;5056517;28;19912;-79
2021/09/13 06:24:31;;;;;;;;;;;28.20;54.30;;;;;;5053875;28;19976;-78
2021/09/13 06:26:56;;;;;;;;;;;28.50;54.90;;;;;;5054267;28;20001;-77
2021/09/13 06:29:22;;;;;;;;;;;28.80;53.80;;;;;;5054332;28;20015;-78
2021/09/13 06:31:49;;;;;;;;;;;29.20;54.30;;;;;;5073518;28;19924;-79
2021/09/13 06:34:17;;;;;;;;;;;29.60;54.30;;;;;;5073347;28;19962;-80
2021/09/13 06:36:46;;;;;;;;;;;30.00;51.70;;;;;;5053446;28;19932;-78
2021/09/13 06:39:11;;;;;;;;;;;30.50;52.80;;;;;;5078418;28;19920;-77
2021/09/13 06:41:37;;;;;;;;;;;30.90;50.40;;;;;;5077330;28;19912;-78
2021/09/13 06:44:04;;;;;;;;;;;31.20;52.00;;;;;;5079552;28;20258;-78
2021/09/13 06:46:41;;;;;;;;;;;31.30;53.10;;;;;;5059365;28;20573;-80
2021/09/13 06:49:07;;;;;;;;;;;31.20;47.90;;;;;;5074071;28;19956;-82
2021/09/13 06:51:32;;;;;;;;;;;31.30;49.90;;;;;;5075307;28;19916;-81
2021/09/13 06:53:59;;;;;;;;;;;31.40;49.20;;;;;;5058547;28;19955;-79
2021/09/13 06:56:24;;;;;;;;;;;31.90;50.50;;;;;;5075446;28;19921;-80
2021/09/13 06:58:52;;;;;;;;;;;32.30;51.30;;;;;;5075945;28;20306;-79
2021/09/13 07:01:21;;;;;;;;;;;32.40;46.30;;;;;;5054567;28;19912;-78
2021/09/13 07:03:47;;;;;;;;;;;32.50;49.50;;;;;;5074072;28;20281;-77
2021/09/13 07:06:12;;;;;;;;;;;32.40;49.20;;;;;;5057191;28;20365;-79
2021/09/13 07:08:38;;;;;;;;;;;32.50;47.70;;;;;;5069655;28;20291;-78
2021/09/13 07:11:13;;;;;;;;;;;32.70;47.90;;;;;;5054224;28;19912;-79
2021/09/13 07:13:39;;;;;;;;;;;32.90;49.40;;;;;;5057017;28;19909;-80
2021/09/13 07:16:05;;;;;;;;;;;33.10;47.00;;;;;;5058464;28;19920;-80
2021/09/13 07:18:30;;;;;;;;;;;33.40;45.90;;;;;;5061015;28;20019;-79
2021/09/13 07:20:56;;;;;;;;;;;33.40;46.50;;;;;;5077188;28;19956;-80
2021/09/13 07:23:24;;;;;;;;;;;33.40;46.60;;;;;;5059243;28;20011;-79
2021/09/13 07:25:50;;;;;;;;;;;33.10;44.70;;;;;;5077250;28;19916;-82
2021/09/13 07:28:15;;;;;;;;;;;32.90;44.20;;;;;;5075364;28;19908;-78
2021/09/13 07:30:41;;;;;;;;;;;32.70;46.50;;;;;;5074728;28;19966;-80
2021/09/13 07:33:06;;;;;;;;;;;32.50;45.00;;;;;;5057899;28;19912;-78
2021/09/13 07:35:32;;;;;;;;;;;32.00;46.50;;;;;;5073435;28;20292;-74
2021/09/13 07:37:58;;;;;;;;;;;31.60;45.90;;;;;;5076348;28;19912;-80
2021/09/13 07:40:23;;;;;;;;;;;31.40;46.20;;;;;;5058860;28;19960;-79
2021/09/13 07:42:49;;;;;;;;;;;31.50;47.40;;;;;;5077304;28;19912;-80
2021/09/13 07:45:14;;;;;;;;;;;31.80;47.00;;;;;;5056804;28;19952;-80
2021/09/13 07:47:40;;;;;;;;;;;32.20;46.40;;;;;;5071972;28;19912;-78
2021/09/13 07:50:06;;;;;;;;;;;32.40;46.40;;;;;;5072534;28;19999;-77
2021/09/13 07:52:32;;;;;;;;;;;32.50;44.50;;;;;;5075444;28;19913;-79
2021/09/13 07:54:57;;;;;;;;;;;32.30;44.70;;;;;;5056912;28;19984;-78
2021/09/13 07:57:24;;;;;;;;;;;32.00;46.60;;;;;;5076879;28;20335;-79
2021/09/13 07:59:50;;;;;;;;;;;32.20;46.60;;;;;;5055772;28;19912;-78
2021/09/13 08:02:16;;;;;;;;;;;32.50;46.30;;;;;;5071468;28;19966;-75
2021/09/13 08:04:42;;;;;;;;;;;32.70;44.90;;;;;;5070328;28;19913;-77
2021/09/13 08:07:07;;;;;;;;;;;32.80;45.40;;;;;;5066888;28;20313;-79
2021/09/13 08:09:33;;;;;;;;;;;32.90;44.60;;;;;;5070037;28;19912;-78
2021/09/13 08:12:01;;;;;;;;;;;33.30;44.10;;;;;;5067499;28;20035;-80
2021/09/13 08:14:27;;;;;;;;;;;33.80;43.90;;;;;;5051860;28;19916;-78
2021/09/13 08:16:53;;;;;;;;;;;34.60;44.10;;;;;;5052726;28;20024;-79
2021/09/13 08:19:18;;;;;;;;;;;35.60;44.80;;;;;;5054485;28;19920;-81
2021/09/13 08:21:45;;;;;;;;;;;36.20;44.60;;;;;;5052937;22;19931;-82
2021/09/13 08:24:11;;;;;;;;;;;36.70;42.70;;;;;;5054158;28;19912;-82
2021/09/13 08:26:37;;;;;;;;;;;37.30;41.80;;;;;;5056776;28;19917;-83
2021/09/13 08:29:03;;;;;;;;;;;37.80;40.50;;;;;;5040081;28;19963;-82
2021/09/13 08:31:28;;;;;;;;;;;38.40;40.70;;;;;;5055618;28;19920;-78
2021/09/13 08:33:54;;;;;;;;;;;39.10;40.90;;;;;;5039347;28;19915;-82
2021/09/13 08:36:20;;;;;;;;;;;39.80;39.40;;;;;;5059028;28;19933;-80
2021/09/13 08:38:45;;;;;;;;;;;40.20;39.80;;;;;;5037857;28;19913;-77
2021/09/13 08:41:11;;;;;;;;;;;40.60;38.30;;;;;;5052713;28;19989;-81
2021/09/13 08:43:38;;;;;;;;;;;40.80;38.90;;;;;;5020337;28;19913;-80
2021/09/13 08:46:10;;;;;;;;;;;41.00;39.70;;;;;;5051842;28;20051;-81
2021/09/13 08:48:46;;;;;;;;;;;41.20;38.30;;;;;;5044374;28;20409;-83
2021/09/13 08:51:33;;;;;;;;;;;41.50;38.10;;;;;;5057911;28;19923;-81
2021/09/13 08:54:03;;;;;;;;;;;41.80;39.30;;;;;;5052597;28;20051;-76
2021/09/13 08:56:42;;;;;;;;;;;41.80;36.30;;;;;;5055335;28;20374;-78
2021/09/13 08:59:14;;;;;;;;;;;42.20;37.60;;;;;;5053834;28;19908;-77
2021/09/13 09:01:59;;;;;;;;;;;42.30;36.50;;;;;;5031294;28;20000;-76
2021/09/13 09:04:35;;;;;;;;;;;42.30;34.50;;;;;;5051643;28;19915;-80
2021/09/13 09:07:07;;;;;;;;;;;42.50;36.50;;;;;;5052245;28;19947;-83
2021/09/13 09:09:33;;;;;;;;;;;43.00;38.00;;;;;;5035443;28;19909;-76
2021/09/13 09:12:08;;;;;;;;;;;43.30;35.90;;;;;;5050948;28;19917;-75
2021/09/13 09:14:39;;;;;;;;;;;43.50;36.50;;;;;;5052590;28;20019;-77
2021/09/13 09:17:13;;;;;;;;;;;43.70;36.30;;;;;;5031218;28;19963;-77
2021/09/13 09:19:44;;;;;;;;;;;43.80;37.30;;;;;;5031100;28;19909;-79
2021/09/13 09:22:21;;;;;;;;;;;43.60;35.20;;;;;;5032008;28;19925;-79
2021/09/13 09:24:51;;;;;;;;;;;43.70;35.60;;;;;;5054696;28;19909;-79
2021/09/13 09:27:17;;;;;;;;;;;44.10;36.00;;;;;;5058199;28;19917;-77
2021/09/13 09:29:42;;;;;;;;;;;44.30;35.60;;;;;;5053035;28;20331;-77
2021/09/13 09:32:08;;;;;;;;;;;43.80;35.40;;;;;;5050034;28;19942;-77
2021/09/13 09:34:34;;;;;;;;;;;43.50;35.90;;;;;;5047046;28;20250;-75
2021/09/13 09:37:00;;;;;;;;;;;43.50;34.10;;;;;;5047367;28;19917;-75
2021/09/13 09:39:29;;;;;;;;;;;43.80;34.20;;;;;;5048078;28;20168;-77
2021/09/13 09:41:56;;;;;;;;;;;44.20;33.50;;;;;;5049478;28;20243;-76
2021/09/13 09:44:22;;;;;;;;;;;44.60;35.10;;;;;;5031851;28;19916;-75
2021/09/13 09:46:48;;;;;;;;;;;44.70;32.10;;;;;;5050984;28;20307;-76
2021/09/13 09:49:15;;;;;;;;;;;44.60;33.20;;;;;;5033200;28;19916;-78
2021/09/13 09:51:42;;;;;;;;;;;44.70;34.60;;;;;;5050808;28;19939;-76
2021/09/13 09:54:15;;;;;;;;;;;44.60;33.90;;;;;;5050355;28;19916;-76
2021/09/13 09:56:42;;;;;;;;;;;44.60;35.20;;;;;;5032452;28;19969;-76
2021/09/13 09:59:08;;;;;;;;;;;44.40;32.90;;;;;;5049472;28;20015;-78
2021/09/13 10:01:39;;;;;;;;;;;44.40;33.60;;;;;;5048569;28;20389;-77
2021/09/13 10:04:14;;;;;;;;;;;44.80;34.40;;;;;;5030341;28;20277;-78
2021/09/13 10:06:42;;;;;;;;;;;45.00;34.00;;;;;;5051813;28;20694;-83
2021/09/13 10:09:08;;;;;;;;;;;45.20;33.70;;;;;;5034134;28;19935;-78
2021/09/13 10:11:35;;;;;;;;;;;45.20;34.00;;;;;;5053085;28;19909;-79
2021/09/13 10:14:01;;;;;;;;;;;45.40;34.20;;;;;;5051673;28;19917;-79
2021/09/13 10:16:28;;;;;;;;;;;45.60;32.80;;;;;;5048639;28;19995;-83
2021/09/13 10:18:59;;;;;;;;;;;45.70;34.00;;;;;;5045728;28;20056;-77
2021/09/13 10:21:25;;;;;;;;;;;45.90;33.30;;;;;;5043063;22;19935;-78
2021/09/13 10:23:52;;;;;;;;;;;46.00;33.60;;;;;;5029985;28;19909;-80
2021/09/13 10:26:18;;;;;;;;;;;46.30;32.40;;;;;;5048661;28;19921;-79
2021/09/13 10:29:02;;;;;;;;;;;46.60;32.80;;;;;;5003521;28;19999;-78
2021/09/13 10:31:40;;;;;;;;;;;46.70;32.80;;;;;;5003627;28;20375;-77
2021/09/13 10:34:14;;;;;;;;;;;47.10;33.90;;;;;;5007667;28;20452;-79
2021/09/13 10:37:10;;;;;;;;;;;47.10;32.90;;;;;;5008285;28;20414;-81
2021/09/13 10:39:54;;;;;;;;;;;46.70;31.60;;;;;;4979591;28;19913;-79
2021/09/13 10:42:44;;;;;;;;;;;45.30;30.70;;;;;;5007848;28;19921;-81
2021/09/13 10:45:18;;;;;;;;;;;44.50;32.00;;;;;;5007341;28;20472;-80
2021/09/13 10:47:59;;;;;;;;;;;44.90;33.30;;;;;;5009208;28;19913;-78
2021/09/13 10:50:35;;;;;;;;;;;45.50;31.60;;;;;;5007787;28;19913;-78
2021/09/13 10:53:03;;;;;;;;;;;46.10;31.20;;;;;;5018013;28;19925;-78
2021/09/13 10:55:33;;;;;;;;;;;45.90;32.20;;;;;;5055646;28;19916;-82
2021/09/13 10:58:51;;;;;;;;;;;44.50;31.00;;;;;;5076368;28;19935;-78
2021/09/13 11:01:16;;;;;;;;;;;43.10;31.80;;;;;;5032751;28;20044;-77
2021/09/13 11:03:45;;;;;;;;;;;42.80;32.80;;;;;;5057224;28;19917;-76
2021/09/13 11:06:16;;;;;;;;;;;42.70;31.70;;;;;;5056338;28;19908;-78
2021/09/13 11:08:49;;;;;;;;;;;42.30;31.90;;;;;;5058013;28;19928;-79
2021/09/13 11:11:22;;;;;;;;;;;42.50;32.30;;;;;;5079407;28;20002;-82
2021/09/13 11:13:55;;;;;;;;;;;42.60;31.80;;;;;;5077132;28;19916;-78
2021/09/13 11:16:21;;;;;;;;;;;42.80;32.50;;;;;;5056206;28;20418;-78
2021/09/13 11:18:47;;;;;;;;;;;43.00;31.90;;;;;;5054502;28;19917;-80
2021/09/13 11:21:14;;;;;;;;;;;42.70;32.40;;;;;;5077607;28;19909;-79
2021/09/13 11:23:40;;;;;;;;;;;41.70;31.90;;;;;;5076272;28;20357;-78
2021/09/13 11:26:05;;;;;;;;;;;40.40;32.10;;;;;;5078548;28;19974;-79
2021/09/13 11:28:31;;;;;;;;;;;39.10;35.10;;;;;;5063231;28;19917;-78
2021/09/13 11:30:57;;;;;;;;;;;37.50;34.90;;;;;;5076672;28;19908;-78
2021/09/13 11:33:23;;;;;;;;;;;37.50;35.00;;;;;;5058439;28;19951;-80
2021/09/13 11:35:55;;;;;;;;;;;38.10;34.70;;;;;;5058271;28;19931;-79
2021/09/13 11:38:21;;;;;;;;;;;39.20;33.90;;;;;;5059142;28;19925;-79
2021/09/13 11:40:47;;;;;;;;;;;39.60;33.90;;;;;;5073858;28;19916;-80
2021/09/13 11:43:18;;;;;;;;;;;40.10;33.00;;;;;;5072503;28;19916;-80
2021/09/13 11:45:44;;;;;;;;;;;40.20;31.70;;;;;;5056385;28;19908;-78
2021/09/13 11:48:10;;;;;;;;;;;40.10;32.50;;;;;;5053307;28;20388;-79
2021/09/13 11:50:36;;;;;;;;;;;39.60;32.70;;;;;;5072700;28;20504;-79
2021/09/13 11:53:14;;;;;;;;;;;38.70;33.40;;;;;;5072501;28;19920;-80
2021/09/13 11:55:40;;;;;;;;;;;38.50;33.70;;;;;;5054652;28;19920;-80
2021/09/13 11:58:07;;;;;;;;;;;39.20;33.40;;;;;;5054601;28;19982;-80
2021/09/13 12:00:37;;;;;;;;;;;39.70;33.30;;;;;;5072119;28;19944;-79
2021/09/13 12:03:05;;;;;;;;;;;40.10;32.20;;;;;;5073312;28;19947;-79
2021/09/13 12:05:41;;;;;;;;;;;40.10;32.60;;;;;;5056605;28;19962;-80
2021/09/13 12:08:26;;;;;;;;;;;40.10;32.10;;;;;;5055271;28;19974;-82
2021/09/13 12:10:52;;;;;;;;;;;39.90;32.20;;;;;;5053183;28;20003;-82
2021/09/13 12:13:19;;;;;;;;;;;39.80;32.20;;;;;;5071890;28;19944;-78
2021/09/13 12:15:49;;;;;;;;;;;39.80;32.20;;;;;;5073123;28;19917;-82
2021/09/13 12:18:16;;;;;;;0.10;0.10;;;39.90;32.30;;;;;;5058442;28;20427;-81
2021/09/13 12:20:43;;;;;;;0.10;0.10;;;40.30;32.30;;;;;;5076770;28;20039;-81
2021/09/13 12:23:14;;;;;;;0.10;0.10;;;40.90;32.30;;;;;;5077186;28;20501;-80
2021/09/13 12:25:41;;;;;;;0.10;0.10;;;41.60;31.60;;;;;;5076266;28;20025;-82
2021/09/13 12:28:07;;;;;;;0.10;0.10;;;41.80;31.00;;;;;;5058893;28;20024;-82
2021/09/13 12:30:38;;;;;;;0.10;0.10;;;41.60;30.70;;;;;;5076745;28;20017;-81
2021/09/13 12:33:06;;;;;;;0.10;0.10;;;41.10;31.00;;;;;;5058141;28;20028;-80
2021/09/13 12:35:35;;;;;;;0.10;0.10;;;40.70;32.00;;;;;;5056332;28;20036;-80
2021/09/13 12:38:07;;;;;;;0.03;0.03;;;40.70;31.80;;;;;;5054897;28;20064;-81
2021/09/13 12:40:50;;;;;;;0.08;0.08;;;40.80;31.50;;;;;;5053972;28;20074;-81
2021/09/13 12:43:17;;;;;;;;;;;40.80;31.40;;;;;;5071963;28;20041;-81
2021/09/13 12:45:43;;;;;;;0.10;0.10;;;40.30;31.10;;;;;;5053872;28;19969;-82
2021/09/13 12:48:08;;;;;;;0.10;0.10;;;39.90;31.10;;;;;;5072238;28;20028;-82
2021/09/13 12:50:34;;;;;;;0.10;0.10;;;39.80;31.40;;;;;;5072076;28;20013;-82
2021/09/13 12:53:07;;;;;;;0.00;0.00;;;40.00;31.20;;;;;;5069749;28;20037;-80
2021/09/13 12:55:38;;;;;;;0.00;0.00;;;40.10;31.10;;;;;;5074458;28;20458;-82
2021/09/13 12:58:23;;;;;;;0.10;0.10;;;40.50;31.30;;;;;;5074694;28;20032;-81
2021/09/13 13:00:48;;;;;;;0.10;0.10;;;41.10;31.10;;;;;;5056716;28;20250;-82
2021/09/13 13:03:14;;;;;;;0.10;0.10;;;41.40;30.70;;;;;;5056400;28;20077;-82
2021/09/13 13:05:47;;;;;;;0.10;0.10;;;41.60;30.30;;;;;;5075153;28;20028;-82
2021/09/13 13:08:13;;;;;;;0.05;0.05;;;41.10;30.10;;;;;;5075381;28;20024;-82
2021/09/13 13:10:39;;;;;;;0.10;0.10;;;40.40;30.30;;;;;;5073873;28;20036;-82
2021/09/13 13:13:05;;;;;;;0.10;0.10;;;40.10;30.40;;;;;;5073777;28;20028;-82
2021/09/13 13:15:32;;;;;;;0.00;0.00;;;40.00;30.30;;;;;;5073690;28;20116;-82
2021/09/13 13:17:58;;;;;;;0.10;0.10;;;40.30;30.10;;;;;;5055996;28;20025;-82
2021/09/13 13:20:27;;;;;;;0.00;0.00;;;40.50;30.00;;;;;;5057574;28;20032;-83
2021/09/13 13:22:55;;;;;;;0.05;0.05;;;40.70;29.80;;;;;;5073250;28;20017;-82
2021/09/13 13:25:22;;;;;;;0.10;0.10;;;40.70;30.00;;;;;;5075421;28;20058;-82
2021/09/13 13:27:47;;;;;;;0.00;0.00;;;40.90;29.90;;;;;;5076398;28;20036;-83
2021/09/13 13:30:16;;;;;;;0.00;0.00;;;41.00;29.90;;;;;;5075536;28;20033;-81
2021/09/13 13:32:42;;;;;;;;;;;41.40;29.90;;;;;;5076623;28;20070;-83
2021/09/13 13:35:08;;;;;;;;;;;41.40;29.80;;;;;;5073245;28;19917;-82
2021/09/13 13:37:33;;;;;;;;;;;41.20;29.70;;;;;;5053915;28;19904;-83
2021/09/13 13:39:59;;;;;;;;;;;41.00;29.70;;;;;;5072077;28;19912;-81
2021/09/13 13:42:24;;;;;;;;;;;40.70;29.60;;;;;;5052364;28;20524;-81
2021/09/13 13:44:51;;;;;;;;;;;40.30;29.50;;;;;;5069003;28;19969;-80
2021/09/13 13:47:17;;;;;;;;;;;40.00;29.40;;;;;;5065934;28;19954;-80
2021/09/13 13:49:42;;;;;;;;;;;39.80;29.30;;;;;;5049934;28;19904;-81
2021/09/13 13:52:08;;;;;;;;;;;39.70;29.10;;;;;;5066283;28;19916;-80
2021/09/13 13:54:33;;;;;;;;;;;39.80;29.20;;;;;;5050440;28;20587;-81
2021/09/13 13:56:59;;;;;;;;;;;39.40;28.50;;;;;;5051160;28;19912;-81
2021/09/13 13:59:24;;;;;;;;;;;39.20;28.70;;;;;;5052883;28;19912;-81
2021/09/13 14:01:50;;;;;;;;;;;39.20;28.70;;;;;;5054335;28;19908;-80
2021/09/13 14:04:16;;;;;;;;;;;39.40;28.80;;;;;;5073738;28;19913;-80
2021/09/13 14:06:41;;;;;;;;;;;39.70;28.80;;;;;;5070284;28;20022;-80
2021/09/13 14:09:07;;;;;;;;;;;39.80;28.90;;;;;;5053320;28;19912;-80
2021/09/13 14:11:33;;;;;;;;;;;39.80;29.00;;;;;;5073359;28;19904;-80